sensor_id;sensor_type;location;lat;lon;timestamp;pressure;altitude;pressure_sealevel;temperature;humidity
63343;BME280;49465;57.664;39.686;2023-05-09T00:02:28;101986.44;;;4.89;44.68
63343;BME280;49465;57.664;39.686;2023-05-09T00:04:58;101979.94;;;4.54;45.09
63343;BME280;49465;57.664;39.686;2023-05-09T00:07:30;101984.22;;;4.60;45.62
63343;BME280;49465;57.664;39.686;2023-05-09T00:10:00;101994.63;;;4.58;45.25
63343;BME280;49465;57.664;39.686;2023-05-09T00:12:37;101986.91;;;4.53;45.70
63343;BME280;49465;57.664;39.686;2023-05-09T00:15:09;101986.97;;;4.46;45.89
63343;BME280;49465;57.664;39.686;2023-05-09T00:17:44;101982.72;;;4.40;46.15
63343;BME280;49465;57.664;39.686;2023-05-09T00:20:13;101986.22;;;4.38;46.40
63343;BME280;49465;57.664;39.686;2023-05-09T00:22:45;101980.38;;;4.17;45.57
63343;BME280;49465;57.664;39.686;2023-05-09T00:25:15;101986.31;;;4.27;45.58
63343;BME280;49465;57.664;39.686;2023-05-09T00:27:44;101992.44;;;4.21;46.31
63343;BME280;49465;57.664;39.686;2023-05-09T00:30:13;101989.00;;;4.19;46.85
63343;BME280;49465;57.664;39.686;2023-05-09T00:32:43;101990.81;;;4.14;45.70
63343;BME280;49465;57.664;39.686;2023-05-09T00:35:19;101979.75;;;3.95;46.23
63343;BME280;49465;57.664;39.686;2023-05-09T00:37:48;101983.25;;;3.92;45.69
63343;BME280;49465;57.664;39.686;2023-05-09T00:40:20;101985.75;;;4.00;45.69
63343;BME280;49465;57.664;39.686;2023-05-09T00:42:49;101974.69;;;3.81;45.89
63343;BME280;49465;57.664;39.686;2023-05-09T00:45:19;101984.09;;;3.90;46.33
63343;BME280;49465;57.664;39.686;2023-05-09T00:47:50;101990.19;;;3.86;46.95
63343;BME280;49465;57.664;39.686;2023-05-09T00:50:22;101976.50;;;3.68;45.85
63343;BME280;49465;57.664;39.686;2023-05-09T00:52:50;101986.94;;;3.65;46.02
63343;BME280;49465;57.664;39.686;2023-05-09T00:55:24;101977.34;;;3.75;47.58
63343;BME280;49465;57.664;39.686;2023-05-09T00:57:58;101986.13;;;3.59;47.03
63343;BME280;49465;57.664;39.686;2023-05-09T01:00:35;101978.25;;;3.68;47.22
63343;BME280;49465;57.664;39.686;2023-05-09T01:03:05;101980.13;;;3.49;46.63
63343;BME280;49465;57.664;39.686;2023-05-09T01:12:33;101983.34;;;3.80;45.73
63343;BME280;49465;57.664;39.686;2023-05-09T01:17:48;101976.59;;;3.61;46.32
63343;BME280;49465;57.664;39.686;2023-05-09T01:20:43;101979.16;;;3.64;45.71
63343;BME280;49465;57.664;39.686;2023-05-09T01:31:52;101991.72;;;3.00;47.68
63343;BME280;49465;57.664;39.686;2023-05-09T01:34:29;101984.84;;;2.96;47.98
63343;BME280;49465;57.664;39.686;2023-05-09T01:37:00;101992.56;;;3.05;48.83
63343;BME280;49465;57.664;39.686;2023-05-09T01:39:47;101987.41;;;3.02;48.29
63343;BME280;49465;57.664;39.686;2023-05-09T01:42:17;101989.19;;;2.92;48.86
63343;BME280;49465;57.664;39.686;2023-05-09T01:44:49;101983.97;;;2.94;49.02
63343;BME280;49465;57.664;39.686;2023-05-09T01:47:19;101987.53;;;2.76;48.30
63343;BME280;49465;57.664;39.686;2023-05-09T01:49:47;101986.66;;;2.75;48.95
63343;BME280;49465;57.664;39.686;2023-05-09T01:52:19;101988.34;;;2.89;49.49
63343;BME280;49465;57.664;39.686;2023-05-09T01:54:50;101984.13;;;2.68;48.97
63343;BME280;49465;57.664;39.686;2023-05-09T01:57:19;101976.38;;;2.63;48.99
63343;BME280;49465;57.664;39.686;2023-05-09T01:59:51;101988.41;;;2.76;49.74
63343;BME280;49465;57.664;39.686;2023-05-09T02:02:22;101991.00;;;2.75;50.07
63343;BME280;49465;57.664;39.686;2023-05-09T02:04:53;101990.19;;;2.64;49.52
63343;BME280;49465;57.664;39.686;2023-05-09T02:07:38;101989.25;;;2.74;50.62
63343;BME280;49465;57.664;39.686;2023-05-09T02:10:08;101991.03;;;2.66;49.96
63343;BME280;49465;57.664;39.686;2023-05-09T02:12:37;101990.22;;;2.59;50.19
63343;BME280;49465;57.664;39.686;2023-05-09T02:15:11;101987.56;;;2.74;49.82
63343;BME280;49465;57.664;39.686;2023-05-09T02:17:37;101995.34;;;2.62;50.33
63343;BME280;49465;57.664;39.686;2023-05-09T02:20:13;101996.22;;;2.66;50.40
63343;BME280;49465;57.664;39.686;2023-05-09T02:22:40;101994.47;;;2.69;51.22
63343;BME280;49465;57.664;39.686;2023-05-09T02:25:14;101982.38;;;2.71;51.28
63343;BME280;49465;57.664;39.686;2023-05-09T02:27:49;101987.47;;;2.87;50.33
63343;BME280;49465;57.664;39.686;2023-05-09T02:30:22;101999.59;;;2.86;50.76
63343;BME280;49465;57.664;39.686;2023-05-09T02:33:01;101998.72;;;2.83;51.09
63343;BME280;49465;57.664;39.686;2023-05-09T02:35:28;101999.63;;;2.77;51.43
63343;BME280;49465;57.664;39.686;2023-05-09T02:38:01;101995.22;;;2.93;51.59
63343;BME280;49465;57.664;39.686;2023-05-09T02:40:31;102000.44;;;2.84;51.87
63343;BME280;49465;57.664;39.686;2023-05-09T02:42:58;102003.06;;;2.76;52.15
63343;BME280;49465;57.664;39.686;2023-05-09T02:45:34;101995.28;;;2.76;51.79
63343;BME280;49465;57.664;39.686;2023-05-09T02:48:11;102005.53;;;3.01;52.71
63343;BME280;49465;57.664;39.686;2023-05-09T02:50:38;102000.47;;;2.81;51.76
63343;BME280;49465;57.664;39.686;2023-05-09T02:53:12;101996.06;;;2.95;53.14
63343;BME280;49465;57.664;39.686;2023-05-09T02:55:46;101996.09;;;2.84;52.59
63343;BME280;49465;57.664;39.686;2023-05-09T02:58:18;101991.81;;;2.86;52.14
63343;BME280;49465;57.664;39.686;2023-05-09T03:00:50;102003.81;;;3.03;54.24
63343;BME280;49465;57.664;39.686;2023-05-09T03:03:21;101997.81;;;2.93;53.15
63343;BME280;49465;57.664;39.686;2023-05-09T03:05:51;101993.41;;;3.09;53.55
63343;BME280;49465;57.664;39.686;2023-05-09T03:08:20;101990.84;;;3.00;53.18
63343;BME280;49465;57.664;39.686;2023-05-09T03:10:50;101988.25;;;3.04;53.23
63343;BME280;49465;57.664;39.686;2023-05-09T03:13:21;101991.59;;;3.19;53.96
63343;BME280;49465;57.664;39.686;2023-05-09T03:15:53;101997.59;;;3.28;52.73
63343;BME280;49465;57.664;39.686;2023-05-09T03:18:22;101991.56;;;3.23;52.37
63343;BME280;49465;57.664;39.686;2023-05-09T03:20:51;101987.22;;;3.31;53.54
63343;BME280;49465;57.664;39.686;2023-05-09T03:23:18;101991.47;;;3.40;53.69
63343;BME280;49465;57.664;39.686;2023-05-09T03:25:47;101991.41;;;3.49;53.55
63343;BME280;49465;57.664;39.686;2023-05-09T03:28:13;101991.28;;;3.60;53.26
63343;BME280;49465;57.664;39.686;2023-05-09T03:30:42;101992.94;;;3.72;52.83
63343;BME280;49465;57.664;39.686;2023-05-09T03:33:11;101991.94;;;3.85;53.84
63343;BME280;49465;57.664;39.686;2023-05-09T03:35:38;102003.94;;;3.97;53.59
63343;BME280;49465;57.664;39.686;2023-05-09T03:38:07;101999.50;;;4.10;53.01
63343;BME280;49465;57.664;39.686;2023-05-09T03:40:39;102001.81;;;4.36;53.35
63343;BME280;49465;57.664;39.686;2023-05-09T03:43:12;102009.44;;;4.51;53.24
63343;BME280;49465;57.664;39.686;2023-05-09T03:45:40;102000.72;;;4.55;52.84
63343;BME280;49465;57.664;39.686;2023-05-09T03:48:10;102003.13;;;4.72;52.85
63343;BME280;49465;57.664;39.686;2023-05-09T03:50:37;102005.50;;;4.88;52.08
63343;BME280;49465;57.664;39.686;2023-05-09T03:53:06;102001.81;;;5.04;51.06
63343;BME280;49465;57.664;39.686;2023-05-09T03:55:33;102006.75;;;5.23;51.43
63343;BME280;49465;57.664;39.686;2023-05-09T03:58:03;102014.97;;;5.52;51.38
63343;BME280;49465;57.664;39.686;2023-05-09T04:00:29;102013.13;;;5.61;50.45
63343;BME280;49465;57.664;39.686;2023-05-09T04:02:56;102001.53;;;5.79;50.24
63343;BME280;49465;57.664;39.686;2023-05-09T04:05:22;102005.59;;;5.97;50.73
63343;BME280;49465;57.664;39.686;2023-05-09T04:07:54;102011.97;;;6.27;51.46
63343;BME280;49465;57.664;39.686;2023-05-09T04:10:21;102003.88;;;6.42;48.75
63343;BME280;49465;57.664;39.686;2023-05-09T04:12:54;102011.91;;;6.75;49.12
63343;BME280;49465;57.664;39.686;2023-05-09T04:15:23;102012.28;;;6.97;48.50
63343;BME280;49465;57.664;39.686;2023-05-09T04:17:52;102013.41;;;7.24;48.19
63343;BME280;49465;57.664;39.686;2023-05-09T04:20:19;102006.13;;;7.39;48.51
63343;BME280;49465;57.664;39.686;2023-05-09T04:22:45;102012.53;;;7.61;47.69
63343;BME280;49465;57.664;39.686;2023-05-09T04:25:12;102011.97;;;7.84;46.86
63343;BME280;49465;57.664;39.686;2023-05-09T04:27:39;102014.75;;;8.11;46.89
63343;BME280;49465;57.664;39.686;2023-05-09T04:30:06;102017.59;;;8.35;46.36
63343;BME280;49465;57.664;39.686;2023-05-09T04:32:33;102009.97;;;8.60;45.81
63343;BME280;49465;57.664;39.686;2023-05-09T04:35:00;102017.09;;;8.84;46.08
63343;BME280;49465;57.664;39.686;2023-05-09T04:37:27;102007.69;;;9.07;45.06
63343;BME280;49465;57.664;39.686;2023-05-09T04:39:53;102009.41;;;9.36;44.68
63343;BME280;49465;57.664;39.686;2023-05-09T04:42:19;102014.66;;;9.63;44.43
63343;BME280;49465;57.664;39.686;2023-05-09T04:44:46;102015.41;;;9.92;43.64
63343;BME280;49465;57.664;39.686;2023-05-09T04:47:12;102018.84;;;10.19;44.09
63343;BME280;49465;57.664;39.686;2023-05-09T04:49:44;102003.13;;;10.44;41.86
63343;BME280;49465;57.664;39.686;2023-05-09T04:52:10;102007.47;;;10.68;42.07
63343;BME280;49465;57.664;39.686;2023-05-09T04:54:37;102003.97;;;10.92;41.63
63343;BME280;49465;57.664;39.686;2023-05-09T04:57:03;102006.50;;;11.17;41.68
63343;BME280;49465;57.664;39.686;2023-05-09T04:59:31;102004.72;;;11.39;41.54
63343;BME280;49465;57.664;39.686;2023-05-09T05:01:58;102001.06;;;11.64;41.55
63343;BME280;49465;57.664;39.686;2023-05-09T05:04:28;102004.75;;;12.02;40.17
63343;BME280;49465;57.664;39.686;2023-05-09T05:06:58;102008.00;;;12.28;39.39
63343;BME280;49465;57.664;39.686;2023-05-09T05:09:25;102003.63;;;12.48;39.71
63343;BME280;49465;57.664;39.686;2023-05-09T05:11:54;102004.22;;;12.73;38.57
63343;BME280;49465;57.664;39.686;2023-05-09T05:14:23;101996.47;;;12.89;38.37
63343;BME280;49465;57.664;39.686;2023-05-09T05:16:52;102000.72;;;13.11;38.06
63343;BME280;49465;57.664;39.686;2023-05-09T05:19:20;102004.97;;;13.32;38.53
63343;BME280;49465;57.664;39.686;2023-05-09T05:21:49;101999.41;;;13.56;38.17
63343;BME280;49465;57.664;39.686;2023-05-09T05:24:18;101999.50;;;13.72;38.31
63343;BME280;49465;57.664;39.686;2023-05-09T05:26:45;101999.47;;;14.07;37.21
63343;BME280;49465;57.664;39.686;2023-05-09T05:29:15;102004.41;;;14.30;37.62
63343;BME280;49465;57.664;39.686;2023-05-09T05:35:05;101997.28;;;14.81;35.96
63343;BME280;49465;57.664;39.686;2023-05-09T05:37:36;102001.69;;;15.13;36.23
63343;BME280;49465;57.664;39.686;2023-05-09T05:40:07;101989.91;;;15.34;35.22
63343;BME280;49465;57.664;39.686;2023-05-09T05:42:36;101992.63;;;15.49;34.97
63343;BME280;49465;57.664;39.686;2023-05-09T05:45:03;101992.72;;;15.77;33.89
63343;BME280;49465;57.664;39.686;2023-05-09T05:47:33;101996.34;;;16.05;33.75
63343;BME280;49465;57.664;39.686;2023-05-09T05:50:03;101978.78;;;16.18;33.00
63343;BME280;49465;57.664;39.686;2023-05-09T05:52:40;101982.56;;;16.43;32.25
63343;BME280;49465;57.664;39.686;2023-05-09T05:55:08;101982.75;;;16.54;31.74
63343;BME280;49465;57.664;39.686;2023-05-09T05:57:38;101977.34;;;16.56;30.38
63343;BME280;49465;57.664;39.686;2023-05-09T06:00:05;101983.66;;;16.96;31.36
63343;BME280;49465;57.664;39.686;2023-05-09T06:02:42;101982.66;;;17.12;29.22
63343;BME280;49465;57.664;39.686;2023-05-09T06:05:10;101974.94;;;16.94;29.01
63343;BME280;49465;57.664;39.686;2023-05-09T06:07:36;101976.09;;;16.90;28.14
63343;BME280;49465;57.664;39.686;2023-05-09T06:10:03;101971.47;;;17.34;29.57
63343;BME280;49465;57.664;39.686;2023-05-09T06:12:32;101971.56;;;17.19;27.99
63343;BME280;49465;57.664;39.686;2023-05-09T06:14:58;101969.78;;;17.33;27.75
63343;BME280;49465;57.664;39.686;2023-05-09T06:17:25;101969.16;;;17.42;27.43
63343;BME280;49465;57.664;39.686;2023-05-09T06:19:51;101968.88;;;17.59;26.83
63343;BME280;49465;57.664;39.686;2023-05-09T06:22:20;101972.63;;;17.83;27.42
63343;BME280;49465;57.664;39.686;2023-05-09T06:24:46;101965.00;;;17.91;26.64
63343;BME280;49465;57.664;39.686;2023-05-09T06:27:13;101967.38;;;17.95;26.23
63343;BME280;49465;57.664;39.686;2023-05-09T06:29:44;101979.03;;;18.31;26.65
63343;BME280;49465;57.664;39.686;2023-05-09T06:32:13;101964.72;;;18.21;24.95
63343;BME280;49465;57.664;39.686;2023-05-09T06:34:40;101955.03;;;18.33;25.39
63343;BME280;49465;57.664;39.686;2023-05-09T06:37:07;101957.00;;;18.55;25.67
63343;BME280;49465;57.664;39.686;2023-05-09T06:39:36;101961.28;;;18.45;25.61
63343;BME280;49465;57.664;39.686;2023-05-09T06:42:02;101962.78;;;18.73;25.20
63343;BME280;49465;57.664;39.686;2023-05-09T06:44:28;101961.38;;;18.43;24.12
63343;BME280;49465;57.664;39.686;2023-05-09T06:46:58;101957.00;;;18.92;25.28
63343;BME280;49465;57.664;39.686;2023-05-09T06:49:30;101947.31;;;19.15;25.40
63343;BME280;49465;57.664;39.686;2023-05-09T06:51:59;101950.03;;;19.02;24.58
63343;BME280;49465;57.664;39.686;2023-05-09T06:54:28;101936.41;;;19.31;24.02
63343;BME280;49465;57.664;39.686;2023-05-09T06:56:58;101939.69;;;19.46;24.41
63343;BME280;49465;57.664;39.686;2023-05-09T06:59:30;101938.50;;;19.50;23.88
63343;BME280;49465;57.664;39.686;2023-05-09T07:01:56;101932.59;;;19.58;23.24
63343;BME280;49465;57.664;39.686;2023-05-09T07:04:27;101938.53;;;19.61;23.51
63343;BME280;49465;57.664;39.686;2023-05-09T07:06:57;101931.59;;;19.47;22.89
63343;BME280;49465;57.664;39.686;2023-05-09T07:09:29;101930.03;;;19.56;23.09
63343;BME280;49465;57.664;39.686;2023-05-09T07:11:55;101927.38;;;19.56;23.56
63343;BME280;49465;57.664;39.686;2023-05-09T07:14:27;101924.47;;;19.48;23.29
63343;BME280;49465;57.664;39.686;2023-05-09T07:16:57;101920.03;;;19.24;22.94
63343;BME280;49465;57.664;39.686;2023-05-09T07:19:24;101914.72;;;19.24;23.08
63343;BME280;49465;57.664;39.686;2023-05-09T07:21:50;101915.88;;;19.44;23.54
63343;BME280;49465;57.664;39.686;2023-05-09T07:24:21;101904.09;;;19.24;23.06
63343;BME280;49465;57.664;39.686;2023-05-09T07:26:47;101904.13;;;19.35;23.22
63343;BME280;49465;57.664;39.686;2023-05-09T07:29:14;101905.53;;;19.28;22.52
63343;BME280;49465;57.664;39.686;2023-05-09T07:31:40;101907.25;;;19.29;22.87
63343;BME280;49465;57.664;39.686;2023-05-09T07:34:07;101906.28;;;19.30;22.92
63343;BME280;49465;57.664;39.686;2023-05-09T07:36:33;101902.16;;;19.26;23.32
63343;BME280;49465;57.664;39.686;2023-05-09T07:39:03;101904.81;;;18.91;22.67
63343;BME280;49465;57.664;39.686;2023-05-09T07:41:33;101899.38;;;18.92;22.88
63343;BME280;49465;57.664;39.686;2023-05-09T07:43:59;101899.44;;;18.80;22.62
63343;BME280;49465;57.664;39.686;2023-05-09T07:46:28;101898.44;;;18.93;22.60
63343;BME280;49465;57.664;39.686;2023-05-09T07:48:54;101892.00;;;19.20;22.72
63343;BME280;49465;57.664;39.686;2023-05-09T07:51:24;101897.41;;;19.65;22.87
63343;BME280;49465;57.664;39.686;2023-05-09T07:53:52;101891.47;;;19.62;21.94
63343;BME280;49465;57.664;39.686;2023-05-09T07:56:20;101877.88;;;20.00;21.95
63343;BME280;49465;57.664;39.686;2023-05-09T07:58:49;101868.78;;;20.25;21.86
63343;BME280;49465;57.664;39.686;2023-05-09T08:01:15;101879.97;;;20.51;22.88
63343;BME280;49465;57.664;39.686;2023-05-09T08:03:42;101867.00;;;20.58;22.35
63343;BME280;49465;57.664;39.686;2023-05-09T08:06:11;101875.78;;;20.81;23.00
63343;BME280;49465;57.664;39.686;2023-05-09T08:08:38;101875.38;;;20.65;22.22
63343;BME280;49465;57.664;39.686;2023-05-09T08:11:10;101870.81;;;20.88;22.43
63343;BME280;49465;57.664;39.686;2023-05-09T08:13:42;101880.66;;;20.76;21.91
63343;BME280;49465;57.664;39.686;2023-05-09T08:16:13;101880.94;;;20.50;21.95
63343;BME280;49465;57.664;39.686;2023-05-09T08:18:42;101870.28;;;20.62;21.83
63343;BME280;49465;57.664;39.686;2023-05-09T08:21:12;101869.09;;;20.32;21.98
63343;BME280;49465;57.664;39.686;2023-05-09T08:23:48;101871.84;;;20.53;22.07
63343;BME280;49465;57.664;39.686;2023-05-09T08:26:15;101865.19;;;20.59;21.83
63343;BME280;49465;57.664;39.686;2023-05-09T08:28:42;101861.31;;;20.63;21.66
63343;BME280;49465;57.664;39.686;2023-05-09T08:31:09;101846.84;;;20.77;21.75
63343;BME280;49465;57.664;39.686;2023-05-09T08:33:35;101842.69;;;21.05;21.26
63343;BME280;49465;57.664;39.686;2023-05-09T08:36:12;101845.38;;;21.68;22.52
63343;BME280;49465;57.664;39.686;2023-05-09T08:38:40;101840.03;;;21.78;21.67
63343;BME280;49465;57.664;39.686;2023-05-09T08:41:09;101842.53;;;22.00;21.69
63343;BME280;49465;57.664;39.686;2023-05-09T08:43:35;101834.53;;;22.10;21.50
63343;BME280;49465;57.664;39.686;2023-05-09T08:46:09;101836.03;;;21.93;21.56
63343;BME280;49465;57.664;39.686;2023-05-09T08:48:36;101842.16;;;21.74;21.55
63343;BME280;49465;57.664;39.686;2023-05-09T08:51:04;101843.16;;;21.52;21.32
63343;BME280;49465;57.664;39.686;2023-05-09T08:53:38;101836.50;;;21.67;21.24
63343;BME280;49465;57.664;39.686;2023-05-09T08:56:14;101833.03;;;21.77;21.43
63343;BME280;49465;57.664;39.686;2023-05-09T08:58:45;101838.91;;;21.70;21.56
63343;BME280;49465;57.664;39.686;2023-05-09T09:01:14;101838.44;;;21.65;21.25
63343;BME280;49465;57.664;39.686;2023-05-09T09:03:53;101835.00;;;21.75;21.63
63343;BME280;49465;57.664;39.686;2023-05-09T09:06:23;101828.03;;;21.52;20.94
63343;BME280;49465;57.664;39.686;2023-05-09T09:08:57;101829.53;;;21.76;21.28
63343;BME280;49465;57.664;39.686;2023-05-09T09:11:26;101825.41;;;21.62;20.92
63343;BME280;49465;57.664;39.686;2023-05-09T09:14:00;101821.31;;;21.58;21.19
63343;BME280;49465;57.664;39.686;2023-05-09T09:16:35;101823.97;;;21.58;21.15
63343;BME280;49465;57.664;39.686;2023-05-09T09:19:10;101827.31;;;21.50;20.78
63343;BME280;49465;57.664;39.686;2023-05-09T09:21:42;101828.41;;;21.27;20.64
63343;BME280;49465;57.664;39.686;2023-05-09T09:24:12;101821.72;;;21.11;21.07
63343;BME280;49465;57.664;39.686;2023-05-09T09:26:47;101814.03;;;21.18;20.93
63343;BME280;49465;57.664;39.686;2023-05-09T09:29:16;101815.31;;;21.24;20.88
63343;BME280;49465;57.664;39.686;2023-05-09T09:31:46;101814.59;;;21.43;20.68
63343;BME280;49465;57.664;39.686;2023-05-09T09:34:19;101805.56;;;21.55;20.85
63343;BME280;49465;57.664;39.686;2023-05-09T09:36:52;101799.75;;;21.81;20.80
63343;BME280;49465;57.664;39.686;2023-05-09T09:39:18;101796.44;;;21.98;20.69
63343;BME280;49465;57.664;39.686;2023-05-09T09:41:52;101795.56;;;21.88;20.34
63343;BME280;49465;57.664;39.686;2023-05-09T09:44:22;101793.66;;;22.19;20.87
63343;BME280;49465;57.664;39.686;2023-05-09T09:46:54;101791.56;;;21.72;20.03
63343;BME280;49465;57.664;39.686;2023-05-09T09:49:25;101792.34;;;21.94;20.09
63343;BME280;49465;57.664;39.686;2023-05-09T09:51:54;101795.75;;;22.16;20.16
63343;BME280;49465;57.664;39.686;2023-05-09T09:54:24;101787.25;;;22.41;19.59
63343;BME280;49465;57.664;39.686;2023-05-09T09:56:52;101788.66;;;22.55;19.61
63343;BME280;49465;57.664;39.686;2023-05-09T09:59:29;101792.44;;;22.92;20.26
63343;BME280;49465;57.664;39.686;2023-05-09T10:02:03;101780.88;;;22.81;20.06
63343;BME280;49465;57.664;39.686;2023-05-09T10:04:34;101782.69;;;22.90;20.06
63343;BME280;49465;57.664;39.686;2023-05-09T10:07:08;101789.47;;;22.56;20.04
63343;BME280;49465;57.664;39.686;2023-05-09T10:09:36;101783.72;;;22.31;19.81
63343;BME280;49465;57.664;39.686;2023-05-09T10:12:19;101766.66;;;22.12;20.25
63343;BME280;49465;57.664;39.686;2023-05-09T10:14:51;101769.56;;;21.90;19.63
63343;BME280;49465;57.664;39.686;2023-05-09T10:17:19;101767.22;;;22.16;20.45
63343;BME280;49465;57.664;39.686;2023-05-09T10:20:01;101780.19;;;22.50;20.52
63343;BME280;49465;57.664;39.686;2023-05-09T10:22:31;101775.41;;;22.44;20.19
63343;BME280;49465;57.664;39.686;2023-05-09T10:25:27;101770.94;;;22.44;20.16
63343;BME280;49465;57.664;39.686;2023-05-09T10:28:02;101767.56;;;22.33;20.08
63343;BME280;49465;57.664;39.686;2023-05-09T10:30:40;101763.00;;;22.14;19.74
63343;BME280;49465;57.664;39.686;2023-05-09T10:33:14;101771.19;;;22.31;20.32
63343;BME280;49465;57.664;39.686;2023-05-09T10:35:48;101760.25;;;22.44;20.31
63343;BME280;49465;57.664;39.686;2023-05-09T10:38:15;101755.41;;;22.19;19.88
63343;BME280;49465;57.664;39.686;2023-05-09T10:40:46;101755.97;;;22.12;19.86
63343;BME280;49465;57.664;39.686;2023-05-09T10:43:20;101756.97;;;22.11;19.90
63343;BME280;49465;57.664;39.686;2023-05-09T10:45:48;101754.41;;;22.10;19.94
63343;BME280;49465;57.664;39.686;2023-05-09T10:48:18;101754.47;;;21.69;19.76
63343;BME280;49465;57.664;39.686;2023-05-09T10:50:50;101748.91;;;21.82;19.72
63343;BME280;49465;57.664;39.686;2023-05-09T10:53:20;101743.47;;;22.03;20.39
63343;BME280;49465;57.664;39.686;2023-05-09T10:55:53;101744.31;;;21.53;20.10
63343;BME280;49465;57.664;39.686;2023-05-09T10:58:32;101739.06;;;21.83;20.26
63343;BME280;49465;57.664;39.686;2023-05-09T11:01:04;101740.63;;;21.95;20.17
63343;BME280;49465;57.664;39.686;2023-05-09T11:04:10;101740.53;;;22.45;20.48
63343;BME280;49465;57.664;39.686;2023-05-09T11:06:45;101720.00;;;22.46;20.49
63343;BME280;49465;57.664;39.686;2023-05-09T11:09:51;101730.06;;;22.91;20.72
63343;BME280;49465;57.664;39.686;2023-05-09T11:12:19;101728.44;;;22.70;20.28
63343;BME280;49465;57.664;39.686;2023-05-09T11:14:49;101726.03;;;22.48;19.92
63343;BME280;49465;57.664;39.686;2023-05-09T11:22:22;101703.94;;;22.75;20.23
63343;BME280;49465;57.664;39.686;2023-05-09T11:27:27;101699.22;;;23.06;20.18
63343;BME280;49465;57.664;39.686;2023-05-09T11:29:58;101696.63;;;22.58;19.78
63343;BME280;49465;57.664;39.686;2023-05-09T11:32:30;101693.34;;;22.83;19.00
63343;BME280;49465;57.664;39.686;2023-05-09T11:35:10;101696.22;;;23.19;19.93
63343;BME280;49465;57.664;39.686;2023-05-09T11:38:19;101696.00;;;23.03;20.27
63343;BME280;49465;57.664;39.686;2023-05-09T11:40:41;101686.53;;;22.51;19.09
63343;BME280;49465;57.664;39.686;2023-05-09T11:43:12;101690.53;;;22.85;19.78
63343;BME280;49465;57.664;39.686;2023-05-09T11:45:40;101685.78;;;22.69;19.16
63343;BME280;49465;57.664;39.686;2023-05-09T11:48:12;101691.56;;;22.74;19.41
63343;BME280;49465;57.664;39.686;2023-05-09T11:50:39;101679.88;;;22.65;19.29
63343;BME280;49465;57.664;39.686;2023-05-09T11:53:17;101679.94;;;23.03;19.45
63343;BME280;49465;57.664;39.686;2023-05-09T11:55:49;101683.38;;;22.76;19.21
63343;BME280;49465;57.664;39.686;2023-05-09T11:58:37;101678.16;;;23.31;19.87
63343;BME280;49465;57.664;39.686;2023-05-09T12:01:07;101676.84;;;23.07;18.91
63343;BME280;49465;57.664;39.686;2023-05-09T12:03:45;101674.78;;;23.29;19.63
63343;BME280;49465;57.664;39.686;2023-05-09T12:06:18;101678.16;;;23.31;19.54
63343;BME280;49465;57.664;39.686;2023-05-09T12:08:53;101678.84;;;23.33;19.43
63343;BME280;49465;57.664;39.686;2023-05-09T12:11:24;101666.00;;;23.37;20.07
63343;BME280;49465;57.664;39.686;2023-05-09T12:13:53;101667.78;;;23.18;19.42
63343;BME280;49465;57.664;39.686;2023-05-09T12:16:25;101667.41;;;23.13;19.56
63343;BME280;49465;57.664;39.686;2023-05-09T12:18:55;101668.41;;;23.30;19.70
63343;BME280;49465;57.664;39.686;2023-05-09T12:21:22;101657.38;;;23.15;19.09
63343;BME280;49465;57.664;39.686;2023-05-09T12:23:48;101659.94;;;23.07;19.08
63343;BME280;49465;57.664;39.686;2023-05-09T12:26:21;101653.97;;;23.23;18.46
63343;BME280;49465;57.664;39.686;2023-05-09T12:28:48;101646.97;;;23.12;19.12
63343;BME280;49465;57.664;39.686;2023-05-09T12:31:26;101653.38;;;23.29;17.95
63343;BME280;49465;57.664;39.686;2023-05-09T12:33:53;101639.97;;;23.11;18.67
63343;BME280;49465;57.664;39.686;2023-05-09T12:36:19;101633.59;;;23.12;19.95
63343;BME280;49465;57.664;39.686;2023-05-09T12:38:55;101640.94;;;23.10;20.05
63343;BME280;49465;57.664;39.686;2023-05-09T12:41:27;101641.09;;;22.99;19.88
63343;BME280;49465;57.664;39.686;2023-05-09T12:43:57;101636.31;;;22.93;20.08
63343;BME280;49465;57.664;39.686;2023-05-09T12:46:27;101629.97;;;22.66;19.51
63343;BME280;49465;57.664;39.686;2023-05-09T12:48:59;101634.41;;;22.75;20.34
63343;BME280;49465;57.664;39.686;2023-05-09T12:51:32;101631.75;;;22.75;20.21
63343;BME280;49465;57.664;39.686;2023-05-09T12:54:02;101624.31;;;22.69;20.03
63343;BME280;49465;57.664;39.686;2023-05-09T12:56:35;101619.81;;;22.69;20.26
63343;BME280;49465;57.664;39.686;2023-05-09T12:59:02;101611.53;;;22.63;18.93
63343;BME280;49465;57.664;39.686;2023-05-09T13:01:32;101606.88;;;22.65;19.73
63343;BME280;49465;57.664;39.686;2023-05-09T13:04:05;101606.41;;;22.79;18.77
63343;BME280;49465;57.664;39.686;2023-05-09T13:06:32;101605.50;;;22.61;19.33
63343;BME280;49465;57.664;39.686;2023-05-09T13:09:01;101603.25;;;22.66;19.23
63343;BME280;49465;57.664;39.686;2023-05-09T13:11:28;101602.94;;;22.69;20.00
63343;BME280;49465;57.664;39.686;2023-05-09T13:13:55;101600.25;;;22.69;19.21
63343;BME280;49465;57.664;39.686;2023-05-09T13:16:30;101593.81;;;22.99;18.35
63343;BME280;49465;57.664;39.686;2023-05-09T13:18:59;101595.00;;;22.77;20.32
63343;BME280;49465;57.664;39.686;2023-05-09T13:21:35;101593.63;;;23.01;20.32
63343;BME280;49465;57.664;39.686;2023-05-09T13:24:03;101591.50;;;22.77;19.72
63343;BME280;49465;57.664;39.686;2023-05-09T13:26:31;101590.66;;;22.76;20.11
63343;BME280;49465;57.664;39.686;2023-05-09T13:29:00;101592.94;;;22.71;20.79
63343;BME280;49465;57.664;39.686;2023-05-09T13:31:26;101577.38;;;22.57;20.29